createdAt,value
2023-03-12T00:01:41.736Z,66.06
2023-03-12T00:04:08.339Z,66.15
2023-03-12T00:06:34.941Z,66.19
2023-03-12T00:09:02.064Z,65.82
2023-03-12T00:11:29.202Z,66.13
2023-03-12T00:13:57.457Z,65.94
2023-03-12T00:16:24.887Z,66.52
2023-03-12T00:18:53.950Z,66.62
2023-03-12T00:21:21.926Z,66.29
2023-03-12T00:23:49.426Z,66.05
2023-03-12T00:26:17.023Z,65.87
2023-03-12T00:28:43.818Z,65.63
2023-03-12T00:31:20.231Z,65.67
2023-03-12T00:33:49.416Z,65.91
2023-03-12T00:36:18.044Z,65.81
2023-03-12T00:38:44.678Z,65.77
2023-03-12T00:41:11.458Z,65.88
2023-03-12T00:43:38.566Z,65.83
2023-03-12T00:46:05.221Z,65.63
2023-03-12T00:48:31.973Z,65.74
2023-03-12T00:50:58.606Z,65.77
2023-03-12T00:53:25.347Z,65.97
2023-03-12T00:55:51.876Z,65.73
2023-03-12T00:58:18.527Z,66.03
2023-03-12T01:00:45.263Z,65.86
2023-03-12T01:03:11.872Z,65.68
2023-03-12T01:05:40.854Z,65.94
2023-03-12T01:08:08.687Z,65.73
2023-03-12T01:10:36.382Z,66.11
2023-03-12T01:13:03.543Z,66.48
2023-03-12T01:15:30.214Z,66.17
2023-03-12T01:17:56.748Z,66.08
2023-03-12T01:20:23.689Z,66.01
2023-03-12T01:22:51.426Z,66.17
2023-03-12T01:25:18.791Z,66.39
2023-03-12T01:27:45.307Z,66.45
2023-03-12T01:30:12.335Z,66.75
2023-03-12T01:32:38.867Z,66.24
2023-03-12T01:35:06.561Z,66.25
2023-03-12T01:37:33.807Z,66.46
2023-03-12T01:40:01.032Z,66.27
2023-03-12T01:42:27.696Z,66.72
2023-03-12T01:44:58.917Z,66.47
2023-03-12T01:47:26.289Z,66.22
2023-03-12T01:49:55.822Z,66.37
2023-03-12T01:52:27.562Z,66.36
2023-03-12T01:55:05.395Z,66.75
2023-03-12T01:57:38.323Z,66.85
2023-03-12T02:00:14.670Z,66.40
2023-03-12T02:02:44.255Z,66.45
2023-03-12T02:05:19.536Z,66.67
2023-03-12T02:07:47.123Z,66.52
2023-03-12T02:10:13.738Z,66.94
2023-03-12T02:12:40.388Z,67.19
2023-03-12T02:15:07.865Z,67.17
2023-03-12T02:17:36.265Z,67.36
2023-03-12T02:20:25.773Z,67.91
2023-03-12T02:23:05.763Z,68.18
2023-03-12T02:25:39.272Z,68.20
2023-03-12T02:28:09.288Z,68.46
2023-03-12T02:30:36.676Z,67.88
2023-03-12T02:33:07.557Z,68.65
2023-03-12T02:35:34.542Z,68.94
2023-03-12T02:38:01.152Z,69.19
2023-03-12T02:40:30.676Z,69.56
2023-03-12T02:42:57.544Z,69.67
2023-03-12T02:45:26.067Z,70.11
2023-03-12T02:47:52.721Z,69.98
2023-03-12T02:50:19.257Z,70.15
2023-03-12T02:52:45.752Z,70.64
2023-03-12T02:55:12.504Z,70.82
2023-03-12T02:57:39.320Z,71.32
2023-03-12T03:00:11.982Z,71.12
2023-03-12T03:02:39.842Z,71.79
2023-03-12T03:05:07.098Z,71.77
2023-03-12T03:07:33.904Z,72.10
2023-03-12T03:10:04.139Z,72.32
2023-03-12T03:12:33.969Z,71.99
2023-03-12T03:15:00.821Z,72.47
2023-03-12T03:17:27.616Z,72.91
2023-03-12T03:19:54.529Z,73.13
2023-03-12T03:22:22.205Z,73.15
2023-03-12T03:24:49.058Z,74.22
2023-03-12T03:27:15.649Z,73.86
2023-03-12T03:29:42.159Z,73.94
2023-03-12T03:32:08.711Z,74.19
2023-03-12T03:34:35.346Z,74.62
2023-03-12T03:37:02.070Z,74.82
2023-03-12T03:39:29.641Z,74.68
2023-03-12T03:41:56.439Z,75.00
2023-03-12T03:44:23.194Z,75.27
2023-03-12T03:46:50.115Z,75.59
2023-03-12T03:49:17.036Z,76.16
2023-03-12T03:51:43.760Z,76.00
2023-03-12T03:54:10.753Z,76.23
2023-03-12T03:56:37.367Z,76.39
2023-03-12T03:59:04.385Z,77.00
2023-03-12T04:01:31.507Z,77.13
2023-03-12T04:03:59.451Z,77.26
2023-03-12T04:06:26.067Z,77.53
2023-03-12T04:08:52.609Z,77.85
2023-03-12T04:11:21.392Z,78.12
2023-03-12T04:13:48.873Z,77.92
2023-03-12T04:16:17.157Z,78.10
2023-03-12T04:18:44.707Z,78.18
2023-03-12T04:21:13.256Z,78.24
2023-03-12T04:23:40.427Z,78.42
2023-03-12T04:26:07.761Z,78.64
2023-03-12T04:28:35.235Z,78.53
2023-03-12T04:31:04.349Z,78.96
2023-03-12T04:33:34.205Z,79.15
2023-03-12T04:36:01.227Z,79.06
2023-03-12T04:38:28.050Z,78.91
2023-03-12T04:41:08.662Z,79.11
2023-03-12T04:43:35.748Z,79.50
2023-03-12T04:46:02.906Z,79.64
2023-03-12T04:48:29.882Z,79.32
2023-03-12T04:50:56.425Z,79.42
2023-03-12T04:53:24.222Z,79.95
2023-03-12T04:55:51.288Z,79.30
2023-03-12T04:58:18.778Z,79.79
2023-03-12T05:00:45.567Z,79.29
2023-03-12T05:03:12.141Z,79.29
2023-03-12T05:05:38.676Z,79.57
2023-03-12T05:08:05.771Z,79.38
2023-03-12T05:10:32.776Z,79.67
2023-03-12T05:12:59.621Z,79.76
2023-03-12T05:15:26.571Z,79.71
2023-03-12T05:17:54.769Z,79.96
2023-03-12T05:20:21.642Z,79.88
2023-03-12T05:22:48.234Z,80.10
2023-03-12T05:25:14.921Z,80.10
2023-03-12T05:27:41.477Z,79.94
2023-03-12T05:30:09.808Z,80.30
2023-03-12T05:32:36.543Z,79.80
2023-03-12T05:35:03.588Z,80.04
2023-03-12T05:37:30.136Z,80.41
2023-03-12T05:39:56.819Z,80.04
2023-03-12T05:42:25.133Z,80.27
2023-03-12T05:44:52.367Z,80.34
2023-03-12T05:47:19.303Z,80.40
2023-03-12T05:49:46.142Z,80.36
2023-03-12T05:52:12.688Z,80.01
2023-03-12T05:54:39.404Z,81.27
2023-03-12T05:57:06.042Z,82.44
2023-03-12T05:59:32.752Z,81.39
2023-03-12T06:01:59.376Z,79.30
2023-03-12T06:04:26.190Z,77.33
2023-03-12T06:06:52.908Z,75.32
2023-03-12T06:09:19.549Z,73.32
2023-03-12T06:11:46.049Z,70.37
2023-03-12T06:14:13.128Z,70.57
2023-03-12T06:16:39.903Z,71.62
2023-03-12T06:19:07.673Z,71.92
2023-03-12T06:21:35.907Z,72.95
2023-03-12T06:24:03.114Z,73.00
2023-03-12T06:26:29.945Z,73.72
2023-03-12T06:28:56.764Z,73.72
2023-03-12T06:31:24.102Z,74.58
2023-03-12T06:33:51.594Z,75.03
2023-03-12T06:36:18.186Z,75.51
2023-03-12T06:38:44.997Z,75.96
2023-03-12T06:41:14.621Z,75.64
2023-03-12T06:43:42.176Z,76.48
2023-03-12T06:46:13.494Z,76.50
2023-03-12T06:48:41.562Z,76.47
2023-03-12T06:51:13.356Z,76.81
2023-03-12T06:53:42.218Z,76.94
2023-03-12T06:56:09.956Z,77.30
2023-03-12T06:58:36.606Z,77.32
2023-03-12T07:01:03.388Z,77.40
2023-03-12T07:03:29.881Z,77.56
2023-03-12T07:05:57.861Z,77.79
2023-03-12T07:08:25.756Z,77.71
2023-03-12T07:10:52.404Z,78.21
2023-03-12T07:13:18.998Z,78.28
2023-03-12T07:15:46.569Z,78.80
2023-03-12T07:18:13.913Z,78.70
2023-03-12T07:20:43.298Z,79.17
2023-03-12T07:23:11.108Z,78.67
2023-03-12T07:25:39.456Z,78.67
2023-03-12T07:28:06.987Z,79.35
2023-03-12T07:30:34.414Z,78.95
2023-03-12T07:33:06.211Z,79.05
2023-03-12T07:35:33.011Z,79.40
2023-03-12T07:38:01.560Z,79.41
2023-03-12T07:40:28.383Z,79.44
2023-03-12T07:42:54.907Z,79.61
2023-03-12T07:45:22.146Z,79.45
2023-03-12T07:47:49.693Z,79.10
2023-03-12T07:50:17.639Z,79.50
2023-03-12T07:52:45.175Z,79.70
2023-03-12T07:55:12.067Z,79.32
2023-03-12T07:57:39.058Z,79.96
2023-03-12T08:00:10.490Z,80.14
2023-03-12T08:02:37.314Z,80.02
2023-03-12T08:05:04.407Z,80.33
2023-03-12T08:07:33.028Z,80.39
2023-03-12T08:10:00.212Z,80.32
2023-03-12T08:12:27.752Z,80.46
2023-03-12T08:14:54.723Z,80.86
2023-03-12T08:17:22.957Z,80.66
2023-03-12T08:19:49.606Z,80.49
2023-03-12T08:22:16.209Z,80.38
2023-03-12T08:24:43.198Z,80.23
2023-03-12T08:27:12.117Z,80.71
2023-03-12T08:29:39.703Z,80.88
2023-03-12T08:32:07.449Z,81.05
2023-03-12T08:34:34.907Z,80.80
2023-03-12T08:37:02.895Z,80.75
2023-03-12T08:39:30.177Z,80.64
2023-03-12T08:41:56.737Z,80.85
2023-03-12T08:44:24.599Z,81.05
2023-03-12T08:46:52.212Z,80.84
2023-03-12T08:49:19.665Z,80.96
2023-03-12T08:51:46.361Z,81.23
2023-03-12T08:54:13.136Z,81.29
2023-03-12T08:56:43.193Z,81.58
2023-03-12T08:59:11.628Z,82.37
2023-03-12T09:01:38.426Z,82.99
2023-03-12T09:04:05.654Z,83.44
2023-03-12T09:06:34.245Z,86.24
2023-03-12T09:09:04.963Z,87.97
2023-03-12T09:11:36.529Z,88.21
2023-03-12T09:14:39.529Z,88.49
2023-03-12T09:16:50.261Z,88.73
2023-03-12T09:19:17.122Z,89.00
2023-03-12T09:21:43.696Z,88.76
2023-03-12T09:24:11.520Z,88.46
2023-03-12T09:26:38.124Z,88.29
2023-03-12T09:29:04.747Z,87.32
2023-03-12T09:31:31.781Z,86.00
2023-03-12T09:33:58.356Z,85.31
2023-03-12T09:36:24.879Z,84.79
2023-03-12T09:38:51.409Z,84.81
2023-03-12T09:41:25.233Z,83.79
2023-03-12T09:44:07.932Z,83.63
2023-03-12T09:46:44.582Z,83.24
2023-03-12T09:49:38.061Z,82.59
2023-03-12T09:52:23.420Z,81.94
2023-03-12T09:55:15.866Z,81.37
2023-03-12T09:57:43.507Z,80.35
2023-03-12T10:00:16.260Z,79.49
2023-03-12T10:03:04.535Z,78.71
2023-03-12T10:05:55.870Z,77.23
2023-03-12T10:08:36.678Z,75.85
2023-03-12T10:11:21.299Z,75.87
2023-03-12T10:14:10.279Z,75.41
2023-03-12T10:17:11.017Z,72.93
2023-03-12T10:19:59.861Z,73.39
2023-03-12T10:22:53.236Z,72.66
2023-03-12T10:25:45.448Z,72.83
2023-03-12T10:28:32.248Z,73.75
2023-03-12T10:31:05.294Z,71.90
2023-03-12T10:33:44.758Z,70.83
2023-03-12T10:36:25.038Z,70.65
2023-03-12T10:38:51.710Z,71.15
2023-03-12T10:41:22.008Z,70.21
2023-03-12T10:43:48.608Z,69.77
2023-03-12T10:46:15.166Z,69.29
2023-03-12T10:48:43.231Z,68.40
2023-03-12T10:51:12.535Z,67.71
2023-03-12T10:53:48.249Z,67.98
2023-03-12T10:56:20.259Z,68.07
2023-03-12T10:58:51.222Z,67.26
2023-03-12T11:01:22.008Z,68.03
2023-03-12T11:03:51.093Z,67.74
2023-03-12T11:06:27.073Z,67.57
2023-03-12T11:09:16.669Z,67.62
2023-03-12T11:11:47.537Z,68.72
2023-03-12T11:29:27.247Z,68.72
2023-03-12T11:32:18.166Z,68.67
2023-03-12T11:34:49.682Z,68.46
2023-03-12T11:37:29.118Z,68.13
2023-03-12T11:39:55.612Z,68.08
2023-03-12T11:42:59.359Z,67.29
2023-03-12T11:46:03.609Z,66.44
2023-03-12T11:48:57.549Z,66.76
2023-03-12T11:51:52.276Z,65.47
2023-03-12T11:54:37.328Z,64.49
2023-03-12T11:57:42.428Z,64.54
2023-03-12T12:00:21.829Z,63.94
2023-03-12T12:03:25.355Z,64.62
2023-03-12T12:05:51.851Z,64.71
2023-03-12T12:08:39.840Z,64.20
2023-03-12T12:11:27.005Z,63.79
2023-03-12T12:14:36.828Z,63.65
2023-03-12T12:17:23.850Z,64.21
2023-03-12T12:20:00.944Z,63.73
2023-03-12T12:23:06.338Z,62.81
2023-03-12T12:25:57.923Z,62.82
2023-03-12T12:28:56.012Z,61.70
2023-03-12T12:31:25.580Z,60.48
2023-03-12T12:34:07.752Z,60.61
2023-03-12T12:36:35.155Z,58.90
2023-03-12T12:39:09.961Z,59.43
2023-03-12T12:41:42.697Z,59.00
2023-03-12T12:44:16.723Z,58.39
2023-03-12T12:46:49.402Z,57.94
2023-03-12T12:49:38.026Z,57.68
2023-03-12T12:52:08.067Z,58.08
2023-03-12T12:54:43.670Z,57.85
2023-03-12T12:57:16.109Z,57.60
2023-03-12T12:59:52.214Z,57.39
2023-03-12T13:02:26.493Z,57.11
2023-03-12T13:04:57.210Z,57.60
2023-03-12T13:07:25.793Z,55.56
2023-03-12T13:09:56.214Z,55.50
2023-03-12T13:12:43.540Z,55.38
2023-03-12T13:15:28.152Z,55.11
2023-03-12T13:17:54.655Z,56.14
2023-03-12T13:20:24.509Z,55.54
2023-03-12T13:23:20.233Z,55.78
2023-03-12T13:26:08.680Z,55.83
2023-03-12T13:29:06.132Z,57.05
2023-03-12T13:31:39.769Z,56.48
2023-03-12T13:34:06.335Z,57.62
2023-03-12T13:36:37.561Z,57.85
2023-03-12T13:39:07.358Z,58.40
2023-03-12T13:41:38.028Z,57.38
2023-03-12T13:44:25.239Z,57.02
2023-03-12T13:47:02.309Z,56.88
2023-03-12T13:49:42.387Z,55.69
2023-03-12T13:52:27.087Z,54.18
2023-03-12T13:55:22.268Z,54.41
2023-03-12T13:57:58.687Z,54.72
2023-03-12T14:00:36.257Z,54.20
2023-03-12T14:03:18.248Z,54.73
2023-03-12T14:05:52.431Z,53.87
2023-03-12T14:08:31.038Z,53.93
2023-03-12T14:11:22.314Z,54.34
2023-03-12T14:13:48.837Z,54.70
2023-03-12T14:16:30.838Z,53.82
2023-03-12T14:18:57.562Z,54.69
2023-03-12T14:21:27.747Z,54.44
2023-03-12T14:23:57.611Z,54.85
2023-03-12T14:26:27.977Z,54.64
2023-03-12T14:29:02.660Z,55.46
2023-03-12T14:31:31.584Z,54.54
2023-03-12T14:34:20.695Z,55.13
2023-03-12T14:37:18.170Z,55.56
2023-03-12T14:39:57.630Z,55.63
2023-03-12T14:42:33.638Z,54.93
2023-03-12T14:45:04.184Z,54.73
2023-03-12T14:47:30.728Z,54.48
2023-03-12T14:49:58.592Z,54.30
2023-03-12T14:52:29.664Z,54.32
2023-03-12T14:55:08.350Z,54.07
2023-03-12T14:57:34.995Z,53.48
2023-03-12T15:00:01.720Z,53.72
2023-03-12T15:02:31.008Z,53.47
2023-03-12T15:05:00.301Z,51.74
2023-03-12T15:07:34.381Z,51.86
2023-03-12T15:10:03.146Z,51.82
2023-03-12T15:12:34.354Z,51.25
2023-03-12T15:15:09.548Z,52.13
2023-03-12T15:17:36.433Z,52.73
2023-03-12T15:20:09.518Z,53.14
2023-03-12T15:22:36.789Z,53.33
2023-03-12T15:25:22.221Z,53.60
2023-03-12T15:27:49.297Z,54.27
2023-03-12T15:30:25.690Z,54.42
2023-03-12T15:33:09.162Z,54.45
2023-03-12T15:35:58.453Z,55.05
2023-03-12T15:38:25.801Z,54.74
2023-03-12T15:40:56.152Z,54.64
2023-03-12T15:43:25.777Z,54.90
2023-03-12T15:46:06.807Z,55.49
2023-03-12T15:48:39.504Z,55.76
2023-03-12T15:51:29.278Z,56.00
2023-03-12T15:54:22.970Z,56.40
2023-03-12T15:56:49.576Z,56.23
2023-03-12T15:59:16.075Z,56.56
2023-03-12T16:01:49.915Z,56.61
2023-03-12T16:04:17.410Z,57.22
2023-03-12T16:06:48.253Z,56.85
2023-03-12T16:09:20.101Z,56.77
2023-03-12T16:11:47.342Z,57.20
2023-03-12T16:14:18.766Z,56.72
2023-03-12T16:16:46.631Z,57.05
2023-03-12T16:19:15.453Z,56.83
2023-03-12T16:21:44.108Z,56.59
2023-03-12T16:24:11.508Z,56.95
2023-03-12T16:26:52.050Z,56.73
2023-03-12T16:29:20.314Z,56.45
2023-03-12T16:31:54.275Z,56.15
2023-03-12T16:34:20.873Z,56.33
2023-03-12T16:36:47.403Z,56.21
2023-03-12T16:39:14.081Z,56.04
2023-03-12T16:41:40.711Z,56.20
2023-03-12T16:44:13.734Z,56.18
2023-03-12T16:46:40.338Z,56.00
2023-03-12T16:49:07.048Z,56.80
2023-03-12T16:51:33.611Z,56.87
2023-03-12T16:54:09.708Z,56.95
2023-03-12T16:56:41.347Z,56.79
2023-03-12T16:59:16.070Z,56.68
2023-03-12T17:01:42.733Z,57.11
2023-03-12T17:04:10.920Z,57.74
2023-03-12T17:06:40.107Z,57.56
2023-03-12T17:09:08.453Z,57.50
2023-03-12T17:11:37.799Z,58.26
2023-03-12T17:14:16.400Z,57.94
2023-03-12T17:16:42.948Z,57.84
2023-03-12T17:19:09.481Z,57.29
2023-03-12T17:21:37.538Z,56.59
2023-03-12T17:24:04.410Z,57.26
2023-03-12T17:26:31.135Z,57.07
2023-03-12T17:28:57.696Z,56.30
2023-03-12T17:31:24.777Z,57.07
2023-03-12T17:33:51.429Z,57.20
2023-03-12T17:36:17.977Z,56.82
2023-03-12T17:38:44.614Z,56.78
2023-03-12T17:41:25.452Z,57.36
2023-03-12T17:43:53.612Z,57.15
2023-03-12T17:46:20.310Z,56.95
2023-03-12T17:48:46.873Z,57.94
2023-03-12T17:51:13.497Z,57.35
2023-03-12T17:53:41.823Z,57.89
2023-03-12T17:56:08.708Z,57.60
2023-03-12T17:58:35.320Z,58.80
2023-03-12T18:01:01.860Z,57.93
2023-03-12T18:03:28.509Z,58.62
2023-03-12T18:05:55.332Z,58.44
2023-03-12T18:08:21.970Z,58.62
2023-03-12T18:10:49.165Z,59.02
2023-03-12T18:13:15.811Z,59.00
2023-03-12T18:15:42.417Z,59.16
2023-03-12T18:18:09.032Z,59.35
2023-03-12T18:20:39.713Z,59.96
2023-03-12T18:23:06.593Z,60.43
2023-03-12T18:25:33.166Z,60.22
2023-03-12T18:27:59.702Z,60.63
2023-03-12T18:30:28.265Z,59.89
2023-03-12T18:32:55.039Z,60.46
2023-03-12T18:35:22.736Z,60.45
2023-03-12T18:37:51.899Z,60.26
2023-03-12T18:40:18.517Z,60.82
2023-03-12T18:42:45.347Z,60.58
2023-03-12T18:45:12.250Z,60.95
2023-03-12T18:47:39.619Z,60.85
2023-03-12T18:50:10.159Z,61.28
2023-03-12T18:52:36.856Z,61.21
2023-03-12T18:55:04.450Z,61.92
2023-03-12T18:57:31.370Z,61.68
2023-03-12T18:59:59.356Z,62.43
2023-03-12T19:02:25.945Z,62.26
2023-03-12T19:04:54.845Z,62.67
2023-03-12T19:07:22.709Z,62.08
2023-03-12T19:09:49.380Z,62.81
2023-03-12T19:12:16.061Z,63.32
2023-03-12T19:14:42.548Z,63.12
2023-03-12T19:17:09.030Z,63.68
2023-03-12T19:19:35.762Z,63.76
2023-03-12T19:22:02.380Z,63.08
2023-03-12T19:24:28.927Z,63.38
2023-03-12T19:26:55.878Z,63.59
2023-03-12T19:29:22.498Z,63.67
2023-03-12T19:31:49.181Z,64.40
2023-03-12T19:34:17.286Z,64.29
2023-03-12T19:36:44.038Z,64.18
2023-03-12T19:39:20.578Z,63.86
2023-03-12T19:41:47.911Z,64.21
2023-03-12T19:44:14.506Z,64.47
2023-03-12T19:46:43.065Z,64.12
2023-03-12T19:49:09.787Z,64.82
2023-03-12T19:51:36.634Z,65.22
2023-03-12T19:54:03.199Z,65.37
2023-03-12T19:56:29.822Z,65.07
2023-03-12T19:58:56.388Z,66.00
2023-03-12T20:01:23.077Z,66.21
2023-03-12T20:03:49.704Z,65.74
2023-03-12T20:06:16.415Z,65.88
2023-03-12T20:08:44.572Z,66.38
2023-03-12T20:11:11.434Z,66.21
2023-03-12T20:13:40.605Z,66.86
2023-03-12T20:16:07.900Z,67.19
2023-03-12T20:18:34.646Z,67.09
2023-03-12T20:21:01.251Z,66.95
2023-03-12T20:23:27.806Z,67.22
2023-03-12T20:25:54.378Z,68.08
2023-03-12T20:28:21.090Z,68.02
2023-03-12T20:30:48.569Z,67.88
2023-03-12T20:33:15.272Z,67.43
2023-03-12T20:35:41.914Z,67.78
2023-03-12T20:38:08.631Z,67.62
2023-03-12T20:40:35.247Z,67.82
2023-03-12T20:43:05.086Z,68.36
2023-03-12T20:45:32.752Z,67.77
2023-03-12T20:47:59.806Z,68.36
2023-03-12T20:50:27.726Z,68.23
2023-03-12T20:52:54.536Z,68.77
2023-03-12T20:55:21.124Z,68.79
2023-03-12T20:57:47.823Z,69.55
2023-03-12T21:00:14.584Z,69.29
2023-03-12T21:02:41.195Z,69.18
2023-03-12T21:05:10.353Z,68.86
2023-03-12T21:07:36.984Z,68.55
2023-03-12T21:10:03.944Z,68.40
2023-03-12T21:12:30.576Z,67.62
2023-03-12T21:15:06.016Z,67.43
2023-03-12T21:17:34.293Z,67.04
2023-03-12T21:20:01.779Z,67.44
2023-03-12T21:22:30.500Z,66.70
2023-03-12T21:24:57.654Z,67.59
2023-03-12T21:27:24.879Z,67.32
2023-03-12T21:29:52.818Z,67.16
2023-03-12T21:32:20.566Z,66.39
2023-03-12T21:34:47.435Z,66.46
2023-03-12T21:37:14.209Z,66.28
2023-03-12T21:39:40.738Z,66.57
2023-03-12T21:42:07.429Z,65.95
2023-03-12T21:44:38.194Z,65.93
2023-03-12T21:47:05.513Z,65.91
2023-03-12T21:49:35.845Z,66.43
2023-03-12T21:52:03.648Z,65.92
2023-03-12T21:54:34.641Z,66.10
2023-03-12T21:57:02.919Z,66.00
2023-03-12T21:59:30.889Z,66.41
2023-03-12T22:01:58.316Z,66.48
2023-03-12T22:04:25.225Z,65.81
2023-03-12T22:06:51.989Z,65.73
2023-03-12T22:09:18.812Z,66.62
2023-03-12T22:11:45.354Z,66.33
2023-03-12T22:14:11.940Z,66.62
2023-03-12T22:16:38.512Z,66.79
2023-03-12T22:19:05.076Z,66.73
2023-03-12T22:21:31.652Z,66.82
2023-03-12T22:24:00.636Z,66.27
2023-03-12T22:26:27.711Z,66.79
2023-03-12T22:28:57.530Z,66.98
2023-03-12T22:31:26.625Z,66.41
2023-03-12T22:33:53.200Z,66.67
2023-03-12T22:36:21.401Z,67.07
2023-03-12T22:38:47.919Z,67.25
2023-03-12T22:41:25.769Z,67.43
2023-03-12T22:43:54.639Z,67.30
2023-03-12T22:46:23.457Z,67.30
2023-03-12T22:48:58.691Z,67.35
2023-03-12T22:51:26.634Z,66.86
2023-03-12T22:53:53.314Z,67.60
2023-03-12T22:56:19.958Z,66.88
2023-03-12T22:58:47.241Z,67.43
2023-03-12T23:01:16.228Z,67.26
2023-03-12T23:03:44.887Z,67.02
2023-03-12T23:06:30.167Z,67.40
2023-03-12T23:08:57.112Z,67.79
2023-03-12T23:11:25.586Z,67.21
2023-03-12T23:13:53.595Z,66.91
2023-03-12T23:16:23.346Z,67.14
2023-03-12T23:18:50.875Z,68.05
2023-03-12T23:21:22.959Z,67.54
2023-03-12T23:23:50.158Z,67.66
2023-03-12T23:26:26.503Z,68.13
2023-03-12T23:28:57.837Z,68.11
2023-03-12T23:31:27.140Z,67.55
2023-03-12T23:33:54.609Z,68.29
2023-03-12T23:36:23.350Z,67.76
2023-03-12T23:38:50.268Z,68.19
2023-03-12T23:41:26.036Z,68.56
2023-03-12T23:43:52.787Z,67.98
2023-03-12T23:46:19.812Z,68.86
2023-03-12T23:48:46.984Z,69.19
2023-03-12T23:51:15.252Z,68.91
2023-03-12T23:53:44.156Z,69.66
2023-03-12T23:56:17.122Z,70.84
2023-03-12T23:58:44.437Z,70.47
